SAS42C ENHD-ENGM
Flight info
| Callsign | SAS42C |
|---|---|
| Flight time | 0h 33m |
| Altitude | 29000 |
| Route | ODINU DCT BOBGA DCT ADOPI |
| Aircraft | A20N/M-SDE2E3FGHIRWXY/LB1 |
Departure
| Time | 2026-05-05 17:39 |
|---|---|
| Airport | Haugesund Airport, Karmøy (ENHD) |
Arrival
| Time | 2026-05-05 18:12 |
|---|---|
| Airport | Oslo-Gardermoen International Airport (ENGM) |
| Time | Latitude | Longitude | Altitude | Speed | Heading |
|---|---|---|---|---|---|
| 2026-05-05 17:19 | 59.34477 | 5.21503 | 90 ft | 0 kts | 45° |
| 2026-05-05 17:29 | 59.34476 | 5.21501 | 91 ft | 2 kts | 45° |
| 2026-05-05 17:29 | 59.34458 | 5.21466 | 92 ft | 4 kts | 45° |
| 2026-05-05 17:30 | 59.34448 | 5.21448 | 89 ft | 0 kts | 45° |
| 2026-05-05 17:32 | 59.34449 | 5.21457 | 90 ft | 0 kts | 83° |
| 2026-05-05 17:32 | 59.34446 | 5.21462 | 87 ft | 1 kts | 121° |
| 2026-05-05 17:33 | 59.34413 | 5.21496 | 89 ft | 10 kts | 151° |
| 2026-05-05 17:33 | 59.34343 | 5.21622 | 89 ft | 18 kts | 132° |
| 2026-05-05 17:33 | 59.34262 | 5.21827 | 89 ft | 15 kts | 128° |
| 2026-05-05 17:33 | 59.34171 | 5.21921 | 90 ft | 16 kts | 199° |
| 2026-05-05 17:34 | 59.34075 | 5.21792 | 89 ft | 15 kts | 181° |
| 2026-05-05 17:34 | 59.34018 | 5.21872 | 85 ft | 11 kts | 132° |
| 2026-05-05 17:34 | 59.33956 | 5.22003 | 92 ft | 15 kts | 133° |
| 2026-05-05 17:34 | 59.33875 | 5.22162 | 95 ft | 18 kts | 135° |
| 2026-05-05 17:35 | 59.33801 | 5.22305 | 99 ft | 9 kts | 135° |
| 2026-05-05 17:35 | 59.33762 | 5.22419 | 97 ft | 3 kts | 147° |
| 2026-05-05 17:35 | 59.33757 | 5.22411 | 97 ft | 0 kts | 216° |
| 2026-05-05 17:35 | 59.33758 | 5.22402 | 97 ft | 0 kts | 263° |
| 2026-05-05 17:36 | 59.33765 | 5.22376 | 99 ft | 5 kts | 295° |
| 2026-05-05 17:36 | 59.33783 | 5.22326 | 98 ft | 0 kts | 309° |
| 2026-05-05 17:38 | 59.33804 | 5.22276 | 97 ft | 32 kts | 309° |
| 2026-05-05 17:39 | 59.34188 | 5.21494 | 89 ft | 122 kts | 315° |
| 2026-05-05 17:39 | 59.34872 | 5.19996 | 422 ft | 158 kts | 309° |
| 2026-05-05 17:39 | 59.35593 | 5.18291 | 1247 ft | 168 kts | 308° |
| 2026-05-05 17:39 | 59.36353 | 5.16453 | 2117 ft | 180 kts | 313° |
| 2026-05-05 17:40 | 59.37331 | 5.14709 | 2892 ft | 202 kts | 322° |
| 2026-05-05 17:40 | 59.38681 | 5.13512 | 3792 ft | 228 kts | 349° |
| 2026-05-05 17:40 | 59.40338 | 5.13730 | 4694 ft | 254 kts | 13° |
| 2026-05-05 17:40 | 59.41873 | 5.15466 | 4832 ft | 260 kts | 42° |
| 2026-05-05 17:41 | 59.42819 | 5.18447 | 4948 ft | 267 kts | 68° |
| 2026-05-05 17:41 | 59.43313 | 5.21975 | 5069 ft | 268 kts | 75° |
| 2026-05-05 17:41 | 59.43733 | 5.25546 | 5186 ft | 269 kts | 74° |
| 2026-05-05 17:41 | 59.44199 | 5.29102 | 5312 ft | 269 kts | 74° |
| 2026-05-05 17:42 | 59.44636 | 5.32714 | 5605 ft | 274 kts | 75° |
| 2026-05-05 17:42 | 59.45072 | 5.36379 | 6653 ft | 277 kts | 75° |
| 2026-05-05 17:42 | 59.45505 | 5.40049 | 8217 ft | 278 kts | 74° |
| 2026-05-05 17:42 | 59.45953 | 5.43831 | 9582 ft | 289 kts | 74° |
| 2026-05-05 17:43 | 59.46419 | 5.47761 | 10709 ft | 305 kts | 74° |
| 2026-05-05 17:43 | 59.46924 | 5.52004 | 11437 ft | 332 kts | 74° |
| 2026-05-05 17:43 | 59.47466 | 5.56582 | 12193 ft | 353 kts | 74° |
| 2026-05-05 17:43 | 59.48024 | 5.61353 | 13325 ft | 362 kts | 75° |
| 2026-05-05 17:44 | 59.48591 | 5.66236 | 14439 ft | 371 kts | 74° |
| 2026-05-05 17:44 | 59.49176 | 5.71295 | 15295 ft | 385 kts | 74° |
| 2026-05-05 17:44 | 59.49771 | 5.76445 | 16147 ft | 397 kts | 74° |
| 2026-05-05 17:44 | 59.50392 | 5.81820 | 17047 ft | 409 kts | 74° |
| 2026-05-05 17:45 | 59.51027 | 5.87367 | 17890 ft | 421 kts | 73° |
| 2026-05-05 17:45 | 59.51677 | 5.93060 | 18697 ft | 432 kts | 73° |
| 2026-05-05 17:45 | 59.52337 | 5.98870 | 19577 ft | 438 kts | 74° |
| 2026-05-05 17:45 | 59.53003 | 6.04773 | 20455 ft | 445 kts | 74° |
| 2026-05-05 17:46 | 59.53680 | 6.10791 | 21302 ft | 453 kts | 74° |
| 2026-05-05 17:46 | 59.54366 | 6.16913 | 22124 ft | 461 kts | 75° |
| 2026-05-05 17:46 | 59.55063 | 6.23151 | 22924 ft | 468 kts | 75° |
| 2026-05-05 17:46 | 59.55764 | 6.29456 | 23719 ft | 475 kts | 75° |
| 2026-05-05 17:47 | 59.56474 | 6.35871 | 24418 ft | 481 kts | 75° |
| 2026-05-05 17:47 | 59.57186 | 6.42347 | 25140 ft | 486 kts | 75° |
| 2026-05-05 17:47 | 59.57905 | 6.48908 | 25823 ft | 491 kts | 76° |
| 2026-05-05 17:47 | 59.58628 | 6.55538 | 26499 ft | 495 kts | 76° |
| 2026-05-05 17:48 | 59.59340 | 6.62107 | 27173 ft | 499 kts | 76° |
| 2026-05-05 17:48 | 59.60068 | 6.68845 | 27791 ft | 505 kts | 76° |
| 2026-05-05 17:48 | 59.60799 | 6.75663 | 28406 ft | 509 kts | 76° |
| 2026-05-05 17:48 | 59.61531 | 6.82530 | 28698 ft | 513 kts | 76° |
| 2026-05-05 17:49 | 59.62264 | 6.89446 | 28811 ft | 513 kts | 77° |
| 2026-05-05 17:49 | 59.62991 | 6.96347 | 28917 ft | 515 kts | 77° |
| 2026-05-05 17:49 | 59.63719 | 7.03290 | 28978 ft | 515 kts | 77° |
| 2026-05-05 17:50 | 59.65152 | 7.17063 | 28968 ft | 515 kts | 77° |
| 2026-05-05 17:50 | 59.66585 | 7.30997 | 28971 ft | 519 kts | 77° |
| 2026-05-05 17:51 | 59.68012 | 7.45024 | 28988 ft | 519 kts | 77° |
| 2026-05-05 17:51 | 59.69424 | 7.59060 | 28965 ft | 520 kts | 77° |
| 2026-05-05 17:52 | 59.70586 | 7.70739 | 28958 ft | 520 kts | 77° |
| 2026-05-05 17:52 | 59.72193 | 7.87077 | 28955 ft | 519 kts | 77° |
| 2026-05-05 17:53 | 59.73332 | 7.98791 | 28948 ft | 521 kts | 77° |
| 2026-05-05 17:53 | 59.74691 | 8.12917 | 28955 ft | 521 kts | 77° |
| 2026-05-05 17:54 | 59.76033 | 8.27039 | 28942 ft | 520 kts | 77° |
| 2026-05-05 17:54 | 59.76696 | 8.34085 | 28580 ft | 518 kts | 77° |
| 2026-05-05 17:54 | 59.77353 | 8.41098 | 27722 ft | 518 kts | 77° |
| 2026-05-05 17:54 | 59.78011 | 8.48167 | 26572 ft | 521 kts | 77° |
| 2026-05-05 17:55 | 59.78658 | 8.55168 | 25378 ft | 523 kts | 77° |
| 2026-05-05 17:55 | 59.79316 | 8.62334 | 23969 ft | 530 kts | 77° |
| 2026-05-05 17:55 | 59.79976 | 8.69560 | 22673 ft | 533 kts | 77° |
| 2026-05-05 17:55 | 59.80630 | 8.76771 | 21653 ft | 524 kts | 77° |
| 2026-05-05 17:56 | 59.81262 | 8.83800 | 20984 ft | 508 kts | 78° |
| 2026-05-05 17:56 | 59.81869 | 8.90609 | 20483 ft | 498 kts | 77° |
| 2026-05-05 17:56 | 59.82470 | 8.97358 | 19941 ft | 487 kts | 78° |
| 2026-05-05 17:56 | 59.83040 | 9.03821 | 19454 ft | 460 kts | 78° |
| 2026-05-05 17:57 | 59.83566 | 9.09836 | 18955 ft | 436 kts | 77° |
| 2026-05-05 17:57 | 59.84073 | 9.15638 | 18480 ft | 416 kts | 77° |
| 2026-05-05 17:57 | 59.84555 | 9.21183 | 17962 ft | 399 kts | 77° |
| 2026-05-05 17:57 | 59.85017 | 9.26517 | 17444 ft | 383 kts | 78° |
| 2026-05-05 17:58 | 59.85461 | 9.31650 | 16890 ft | 369 kts | 78° |
| 2026-05-05 17:58 | 59.85886 | 9.36591 | 16342 ft | 356 kts | 78° |
| 2026-05-05 17:58 | 59.86293 | 9.41365 | 15813 ft | 344 kts | 78° |
| 2026-05-05 17:58 | 59.86688 | 9.46001 | 15286 ft | 338 kts | 78° |
| 2026-05-05 17:59 | 59.87078 | 9.50601 | 14765 ft | 334 kts | 78° |
| 2026-05-05 17:59 | 59.87458 | 9.55103 | 14254 ft | 327 kts | 78° |
| 2026-05-05 17:59 | 59.87833 | 9.59552 | 13754 ft | 324 kts | 78° |
| 2026-05-05 17:59 | 59.88199 | 9.63936 | 13195 ft | 318 kts | 78° |
| 2026-05-05 18:00 | 59.88560 | 9.68256 | 12635 ft | 314 kts | 78° |
| 2026-05-05 18:00 | 59.88915 | 9.72530 | 12219 ft | 310 kts | 78° |
| 2026-05-05 18:00 | 59.89261 | 9.76708 | 12113 ft | 311 kts | 78° |
| 2026-05-05 18:00 | 59.89611 | 9.80956 | 12006 ft | 310 kts | 78° |
| 2026-05-05 18:01 | 59.89959 | 9.85197 | 11918 ft | 312 kts | 79° |
| 2026-05-05 18:01 | 59.90305 | 9.89444 | 11903 ft | 309 kts | 79° |
| 2026-05-05 18:01 | 59.90649 | 9.93679 | 11902 ft | 310 kts | 79° |
| 2026-05-05 18:01 | 59.90994 | 9.97928 | 11784 ft | 311 kts | 79° |
| 2026-05-05 18:02 | 59.91335 | 10.02153 | 11524 ft | 306 kts | 79° |
| 2026-05-05 18:02 | 59.91670 | 10.06332 | 11260 ft | 305 kts | 79° |
| 2026-05-05 18:02 | 59.92001 | 10.10487 | 10993 ft | 303 kts | 79° |
| 2026-05-05 18:02 | 59.92331 | 10.14629 | 10725 ft | 302 kts | 79° |
| 2026-05-05 18:03 | 59.92658 | 10.18755 | 10259 ft | 302 kts | 80° |
| 2026-05-05 18:03 | 59.92984 | 10.22895 | 9745 ft | 302 kts | 80° |
| 2026-05-05 18:03 | 59.93309 | 10.27025 | 9192 ft | 301 kts | 80° |
| 2026-05-05 18:03 | 59.93629 | 10.31129 | 8644 ft | 300 kts | 80° |
| 2026-05-05 18:04 | 59.93949 | 10.35235 | 8108 ft | 299 kts | 80° |
| 2026-05-05 18:04 | 59.94267 | 10.39325 | 7577 ft | 298 kts | 80° |
| 2026-05-05 18:04 | 59.94581 | 10.43395 | 7046 ft | 296 kts | 80° |
| 2026-05-05 18:04 | 59.94894 | 10.47461 | 6549 ft | 296 kts | 80° |
| 2026-05-05 18:05 | 59.95200 | 10.51457 | 6023 ft | 294 kts | 81° |
| 2026-05-05 18:05 | 59.95505 | 10.55484 | 5491 ft | 293 kts | 80° |
| 2026-05-05 18:05 | 59.95803 | 10.59429 | 5277 ft | 280 kts | 79° |
| 2026-05-05 18:05 | 59.96085 | 10.63168 | 5171 ft | 265 kts | 79° |
| 2026-05-05 18:06 | 59.96355 | 10.66709 | 5067 ft | 253 kts | 80° |
| 2026-05-05 18:06 | 59.96530 | 10.69021 | 5008 ft | 244 kts | 79° |
| 2026-05-05 18:06 | 59.96852 | 10.73310 | 5015 ft | 234 kts | 79° |
| 2026-05-05 18:06 | 59.97096 | 10.76535 | 5008 ft | 232 kts | 79° |
| 2026-05-05 18:07 | 59.97336 | 10.79717 | 5014 ft | 234 kts | 79° |
| 2026-05-05 18:07 | 59.97755 | 10.82835 | 5065 ft | 232 kts | 69° |
| 2026-05-05 18:07 | 59.98285 | 10.85885 | 5006 ft | 230 kts | 68° |
| 2026-05-05 18:07 | 59.98819 | 10.88871 | 4872 ft | 228 kts | 68° |
| 2026-05-05 18:08 | 59.99345 | 10.91841 | 4503 ft | 232 kts | 68° |
| 2026-05-05 18:08 | 59.99891 | 10.94926 | 4195 ft | 233 kts | 64° |
| 2026-05-05 18:08 | 60.00832 | 10.97391 | 4058 ft | 219 kts | 32° |
| 2026-05-05 18:08 | 60.02200 | 10.98658 | 3727 ft | 218 kts | 13° |
| 2026-05-05 18:09 | 60.03685 | 10.99388 | 3296 ft | 221 kts | 8° |
| 2026-05-05 18:09 | 60.05187 | 11.00015 | 2960 ft | 217 kts | 7° |
| 2026-05-05 18:09 | 60.06625 | 11.00562 | 2834 ft | 204 kts | 7° |
| 2026-05-05 18:09 | 60.07949 | 11.01135 | 2760 ft | 187 kts | 9° |
| 2026-05-05 18:10 | 60.09185 | 11.01759 | 2561 ft | 182 kts | 10° |
| 2026-05-05 18:10 | 60.10438 | 11.02448 | 2081 ft | 191 kts | 12° |
| 2026-05-05 18:10 | 60.11727 | 11.03204 | 1483 ft | 201 kts | 13° |
| 2026-05-05 18:10 | 60.13037 | 11.04000 | 1269 ft | 191 kts | 14° |
| 2026-05-05 18:11 | 60.14270 | 11.04763 | 1102 ft | 180 kts | 14° |
| 2026-05-05 18:11 | 60.15391 | 11.05460 | 950 ft | 158 kts | 13° |
| 2026-05-05 18:11 | 60.16370 | 11.06073 | 886 ft | 135 kts | 14° |
| 2026-05-05 18:11 | 60.17262 | 11.06651 | 812 ft | 134 kts | 15° |
| 2026-05-05 18:12 | 60.18151 | 11.07180 | 742 ft | 133 kts | 13° |
| 2026-05-05 18:12 | 60.19026 | 11.07676 | 670 ft | 120 kts | 12° |
| 2026-05-05 18:12 | 60.19457 | 11.07923 | 672 ft | 46 kts | 15° |
| 2026-05-05 18:12 | 60.19593 | 11.08012 | 673 ft | 2 kts | 49° |
| 2026-05-05 18:13 | 60.19608 | 11.08087 | 670 ft | 9 kts | 84° |
| 2026-05-05 18:13 | 60.19596 | 11.08182 | 673 ft | 0 kts | 114° |
| 2026-05-05 18:13 | 60.19594 | 11.08190 | 673 ft | 1 kts | 115° |
| 2026-05-05 18:13 | 60.19587 | 11.08220 | 673 ft | 6 kts | 115° |
| 2026-05-05 18:14 | 60.19565 | 11.08331 | 676 ft | 10 kts | 108° |
| 2026-05-05 18:14 | 60.19548 | 11.08497 | 677 ft | 12 kts | 78° |
| 2026-05-05 18:14 | 60.19584 | 11.08555 | 678 ft | 8 kts | 28° |
| 2026-05-05 18:14 | 60.19656 | 11.08609 | 678 ft | 14 kts | 18° |
| 2026-05-05 18:15 | 60.19746 | 11.08668 | 678 ft | 0 kts | 25° |
| 2026-05-05 18:15 | 60.19762 | 11.08689 | 676 ft | 7 kts | 35° |
| 2026-05-05 18:15 | 60.19767 | 11.08814 | 677 ft | 13 kts | 105° |
| 2026-05-05 18:15 | 60.19739 | 11.09004 | 680 ft | 15 kts | 109° |
| 2026-05-05 18:16 | 60.19710 | 11.09209 | 679 ft | 8 kts | 103° |
| 2026-05-05 18:16 | 60.19668 | 11.09240 | 683 ft | 8 kts | 189° |
| 2026-05-05 18:16 | 60.19596 | 11.09200 | 681 ft | 8 kts | 197° |
| 2026-05-05 18:16 | 60.19594 | 11.09199 | 681 ft | 0 kts | 197° |